sensor_id;sensor_type;location;lat;lon;timestamp;P1;durP1;ratioP1;P2;durP2;ratioP2
4529;SDS011;2277;51.626;7.516;2022-12-11T00:01:49;18.07;;;16.33;;
4529;SDS011;2277;51.626;7.516;2022-12-11T00:04:15;23.93;;;15.13;;
4529;SDS011;2277;51.626;7.516;2022-12-11T00:06:41;27.00;;;17.73;;
4529;SDS011;2277;51.626;7.516;2022-12-11T00:09:06;25.80;;;17.73;;
4529;SDS011;2277;51.626;7.516;2022-12-11T00:11:32;25.97;;;13.77;;
4529;SDS011;2277;51.626;7.516;2022-12-11T00:13:58;27.33;;;15.93;;
4529;SDS011;2277;51.626;7.516;2022-12-11T00:16:23;16.90;;;13.37;;
4529;SDS011;2277;51.626;7.516;2022-12-11T00:18:49;27.23;;;17.47;;
4529;SDS011;2277;51.626;7.516;2022-12-11T00:21:14;24.07;;;16.57;;
4529;SDS011;2277;51.626;7.516;2022-12-11T00:23:40;24.23;;;16.10;;
4529;SDS011;2277;51.626;7.516;2022-12-11T00:26:07;22.33;;;19.50;;
4529;SDS011;2277;51.626;7.516;2022-12-11T00:28:36;20.60;;;14.40;;
4529;SDS011;2277;51.626;7.516;2022-12-11T00:31:04;22.97;;;20.57;;
4529;SDS011;2277;51.626;7.516;2022-12-11T00:33:31;19.77;;;16.97;;
4529;SDS011;2277;51.626;7.516;2022-12-11T00:35:57;37.83;;;20.37;;
4529;SDS011;2277;51.626;7.516;2022-12-11T00:38:22;32.40;;;22.60;;
4529;SDS011;2277;51.626;7.516;2022-12-11T00:40:48;25.80;;;18.00;;
4529;SDS011;2277;51.626;7.516;2022-12-11T00:43:14;25.27;;;19.43;;
4529;SDS011;2277;51.626;7.516;2022-12-11T00:45:41;31.17;;;22.73;;
4529;SDS011;2277;51.626;7.516;2022-12-11T00:48:08;33.53;;;19.10;;
4529;SDS011;2277;51.626;7.516;2022-12-11T00:50:34;30.23;;;20.53;;
4529;SDS011;2277;51.626;7.516;2022-12-11T00:53:00;34.87;;;18.80;;
4529;SDS011;2277;51.626;7.516;2022-12-11T00:55:26;30.43;;;19.13;;
4529;SDS011;2277;51.626;7.516;2022-12-11T00:57:53;29.33;;;14.90;;
4529;SDS011;2277;51.626;7.516;2022-12-11T01:00:20;17.67;;;15.70;;
4529;SDS011;2277;51.626;7.516;2022-12-11T01:02:47;33.70;;;17.47;;
4529;SDS011;2277;51.626;7.516;2022-12-11T01:05:19;27.23;;;16.37;;
4529;SDS011;2277;51.626;7.516;2022-12-11T01:07:45;32.20;;;19.63;;
4529;SDS011;2277;51.626;7.516;2022-12-11T01:10:13;26.30;;;15.23;;
4529;SDS011;2277;51.626;7.516;2022-12-11T01:15:23;29.70;;;12.17;;
4529;SDS011;2277;51.626;7.516;2022-12-11T01:17:50;22.60;;;16.07;;
4529;SDS011;2277;51.626;7.516;2022-12-11T01:20:16;16.13;;;13.43;;
4529;SDS011;2277;51.626;7.516;2022-12-11T01:22:42;28.63;;;16.67;;
4529;SDS011;2277;51.626;7.516;2022-12-11T01:25:08;20.83;;;16.17;;
4529;SDS011;2277;51.626;7.516;2022-12-11T01:27:35;18.30;;;16.23;;
4529;SDS011;2277;51.626;7.516;2022-12-11T01:30:01;34.57;;;15.17;;
4529;SDS011;2277;51.626;7.516;2022-12-11T01:32:27;32.07;;;18.63;;
4529;SDS011;2277;51.626;7.516;2022-12-11T01:34:53;15.77;;;11.37;;
4529;SDS011;2277;51.626;7.516;2022-12-11T01:37:19;20.97;;;12.40;;
4529;SDS011;2277;51.626;7.516;2022-12-11T01:39:45;26.30;;;15.50;;
4529;SDS011;2277;51.626;7.516;2022-12-11T01:42:14;19.60;;;14.50;;
4529;SDS011;2277;51.626;7.516;2022-12-11T01:47:08;21.97;;;16.20;;
4529;SDS011;2277;51.626;7.516;2022-12-11T01:49:34;23.20;;;20.47;;
4529;SDS011;2277;51.626;7.516;2022-12-11T01:54:29;40.67;;;18.60;;
4529;SDS011;2277;51.626;7.516;2022-12-11T01:56:57;24.77;;;18.60;;
4529;SDS011;2277;51.626;7.516;2022-12-11T01:59:27;26.43;;;20.30;;
4529;SDS011;2277;51.626;7.516;2022-12-11T02:01:56;35.73;;;20.00;;
4529;SDS011;2277;51.626;7.516;2022-12-11T02:04:23;28.03;;;20.20;;
4529;SDS011;2277;51.626;7.516;2022-12-11T02:06:50;23.83;;;19.87;;
4529;SDS011;2277;51.626;7.516;2022-12-11T02:09:26;27.37;;;21.23;;
4529;SDS011;2277;51.626;7.516;2022-12-11T02:20:22;29.50;;;17.87;;
4529;SDS011;2277;51.626;7.516;2022-12-11T02:28:52;27.47;;;18.43;;
4529;SDS011;2277;51.626;7.516;2022-12-11T02:34:15;29.37;;;17.13;;
4529;SDS011;2277;51.626;7.516;2022-12-11T02:36:48;39.37;;;25.60;;
4529;SDS011;2277;51.626;7.516;2022-12-11T02:39:21;27.63;;;18.50;;
4529;SDS011;2277;51.626;7.516;2022-12-11T02:41:50;28.33;;;19.50;;
4529;SDS011;2277;51.626;7.516;2022-12-11T02:44:20;46.10;;;19.83;;
4529;SDS011;2277;51.626;7.516;2022-12-11T02:46:48;24.13;;;17.77;;
4529;SDS011;2277;51.626;7.516;2022-12-11T02:49:16;28.53;;;15.47;;
4529;SDS011;2277;51.626;7.516;2022-12-11T02:51:44;19.23;;;14.70;;
4529;SDS011;2277;51.626;7.516;2022-12-11T02:54:11;17.10;;;15.53;;
4529;SDS011;2277;51.626;7.516;2022-12-11T02:56:45;19.97;;;14.90;;
4529;SDS011;2277;51.626;7.516;2022-12-11T02:59:19;26.90;;;17.33;;
4529;SDS011;2277;51.626;7.516;2022-12-11T03:01:53;20.90;;;15.33;;
4529;SDS011;2277;51.626;7.516;2022-12-11T03:04:19;19.20;;;15.10;;
4529;SDS011;2277;51.626;7.516;2022-12-11T03:06:49;34.90;;;20.57;;
4529;SDS011;2277;51.626;7.516;2022-12-11T03:09:18;21.20;;;17.30;;
4529;SDS011;2277;51.626;7.516;2022-12-11T03:11:44;42.17;;;18.33;;
4529;SDS011;2277;51.626;7.516;2022-12-11T03:14:10;60.60;;;19.97;;
4529;SDS011;2277;51.626;7.516;2022-12-11T03:16:41;29.60;;;20.87;;
4529;SDS011;2277;51.626;7.516;2022-12-11T03:21:56;21.37;;;14.47;;
4529;SDS011;2277;51.626;7.516;2022-12-11T03:24:41;20.27;;;17.17;;
4529;SDS011;2277;51.626;7.516;2022-12-11T03:27:32;31.57;;;18.43;;
4529;SDS011;2277;51.626;7.516;2022-12-11T03:30:06;20.13;;;18.00;;
4529;SDS011;2277;51.626;7.516;2022-12-11T03:32:37;23.30;;;20.70;;
4529;SDS011;2277;51.626;7.516;2022-12-11T03:35:25;24.70;;;17.37;;
4529;SDS011;2277;51.626;7.516;2022-12-11T03:37:56;26.77;;;14.07;;
4529;SDS011;2277;51.626;7.516;2022-12-11T03:40:25;38.53;;;21.07;;
4529;SDS011;2277;51.626;7.516;2022-12-11T03:42:54;28.70;;;16.83;;
4529;SDS011;2277;51.626;7.516;2022-12-11T03:45:21;22.57;;;18.87;;
4529;SDS011;2277;51.626;7.516;2022-12-11T03:47:49;23.30;;;18.50;;
4529;SDS011;2277;51.626;7.516;2022-12-11T03:50:17;21.20;;;16.53;;
4529;SDS011;2277;51.626;7.516;2022-12-11T03:52:44;43.27;;;18.83;;
4529;SDS011;2277;51.626;7.516;2022-12-11T03:55:12;29.87;;;23.27;;
4529;SDS011;2277;51.626;7.516;2022-12-11T03:57:40;34.43;;;17.43;;
4529;SDS011;2277;51.626;7.516;2022-12-11T04:00:10;31.17;;;18.10;;
4529;SDS011;2277;51.626;7.516;2022-12-11T04:02:39;23.00;;;17.00;;
4529;SDS011;2277;51.626;7.516;2022-12-11T04:05:06;35.30;;;20.70;;
4529;SDS011;2277;51.626;7.516;2022-12-11T04:07:32;27.50;;;17.63;;
4529;SDS011;2277;51.626;7.516;2022-12-11T04:09:58;25.50;;;18.13;;
4529;SDS011;2277;51.626;7.516;2022-12-11T04:12:24;36.37;;;23.50;;
4529;SDS011;2277;51.626;7.516;2022-12-11T04:14:50;31.43;;;23.47;;
4529;SDS011;2277;51.626;7.516;2022-12-11T04:17:28;39.00;;;19.67;;
4529;SDS011;2277;51.626;7.516;2022-12-11T04:20:12;29.53;;;24.70;;
4529;SDS011;2277;51.626;7.516;2022-12-11T04:22:56;31.67;;;19.87;;
4529;SDS011;2277;51.626;7.516;2022-12-11T04:25:40;35.33;;;22.87;;
4529;SDS011;2277;51.626;7.516;2022-12-11T04:28:06;42.63;;;21.37;;
4529;SDS011;2277;51.626;7.516;2022-12-11T04:30:31;30.90;;;20.27;;
4529;SDS011;2277;51.626;7.516;2022-12-11T04:32:57;23.67;;;20.40;;
4529;SDS011;2277;51.626;7.516;2022-12-11T04:35:23;32.60;;;21.40;;
4529;SDS011;2277;51.626;7.516;2022-12-11T04:37:48;51.43;;;23.00;;
4529;SDS011;2277;51.626;7.516;2022-12-11T04:40:15;37.03;;;20.63;;
4529;SDS011;2277;51.626;7.516;2022-12-11T04:42:42;35.33;;;18.30;;
4529;SDS011;2277;51.626;7.516;2022-12-11T04:45:08;41.63;;;27.10;;
4529;SDS011;2277;51.626;7.516;2022-12-11T04:47:35;23.37;;;21.03;;
4529;SDS011;2277;51.626;7.516;2022-12-11T04:50:02;27.77;;;19.47;;
4529;SDS011;2277;51.626;7.516;2022-12-11T04:52:29;31.53;;;21.70;;
4529;SDS011;2277;51.626;7.516;2022-12-11T04:54:54;52.20;;;27.60;;
4529;SDS011;2277;51.626;7.516;2022-12-11T04:57:20;36.20;;;19.67;;
4529;SDS011;2277;51.626;7.516;2022-12-11T04:59:46;31.63;;;21.17;;
4529;SDS011;2277;51.626;7.516;2022-12-11T05:02:12;34.53;;;18.10;;
4529;SDS011;2277;51.626;7.516;2022-12-11T05:04:37;27.83;;;23.13;;
4529;SDS011;2277;51.626;7.516;2022-12-11T05:07:03;33.20;;;20.93;;
4529;SDS011;2277;51.626;7.516;2022-12-11T05:09:29;39.57;;;24.90;;
4529;SDS011;2277;51.626;7.516;2022-12-11T05:11:54;35.30;;;19.93;;
4529;SDS011;2277;51.626;7.516;2022-12-11T05:14:20;50.57;;;20.97;;
4529;SDS011;2277;51.626;7.516;2022-12-11T05:16:46;38.83;;;22.73;;
4529;SDS011;2277;51.626;7.516;2022-12-11T05:19:12;28.23;;;17.63;;
4529;SDS011;2277;51.626;7.516;2022-12-11T05:21:38;61.20;;;24.77;;
4529;SDS011;2277;51.626;7.516;2022-12-11T05:24:03;44.37;;;18.70;;
4529;SDS011;2277;51.626;7.516;2022-12-11T05:26:29;32.07;;;23.57;;
4529;SDS011;2277;51.626;7.516;2022-12-11T05:28:55;30.00;;;23.27;;
4529;SDS011;2277;51.626;7.516;2022-12-11T05:31:22;31.90;;;20.53;;
4529;SDS011;2277;51.626;7.516;2022-12-11T05:33:49;24.77;;;18.83;;
4529;SDS011;2277;51.626;7.516;2022-12-11T05:36:17;26.10;;;19.33;;
4529;SDS011;2277;51.626;7.516;2022-12-11T05:38:51;50.63;;;20.60;;
4529;SDS011;2277;51.626;7.516;2022-12-11T05:41:19;38.63;;;19.50;;
4529;SDS011;2277;51.626;7.516;2022-12-11T05:43:46;24.17;;;15.67;;
4529;SDS011;2277;51.626;7.516;2022-12-11T05:48:43;27.47;;;21.50;;
4529;SDS011;2277;51.626;7.516;2022-12-11T05:51:11;23.97;;;15.07;;
4529;SDS011;2277;51.626;7.516;2022-12-11T05:53:39;26.60;;;20.97;;
4529;SDS011;2277;51.626;7.516;2022-12-11T05:56:06;20.03;;;15.97;;
4529;SDS011;2277;51.626;7.516;2022-12-11T05:58:34;33.83;;;20.43;;
4529;SDS011;2277;51.626;7.516;2022-12-11T06:01:00;22.10;;;15.80;;
4529;SDS011;2277;51.626;7.516;2022-12-11T06:03:26;14.00;;;12.73;;
4529;SDS011;2277;51.626;7.516;2022-12-11T06:05:52;24.50;;;15.80;;
4529;SDS011;2277;51.626;7.516;2022-12-11T06:08:18;22.40;;;12.93;;
4529;SDS011;2277;51.626;7.516;2022-12-11T06:10:47;18.93;;;13.17;;
4529;SDS011;2277;51.626;7.516;2022-12-11T06:13:13;17.97;;;16.30;;
4529;SDS011;2277;51.626;7.516;2022-12-11T06:15:40;19.17;;;16.50;;
4529;SDS011;2277;51.626;7.516;2022-12-11T06:18:05;41.17;;;18.73;;
4529;SDS011;2277;51.626;7.516;2022-12-11T06:20:32;16.73;;;12.47;;
4529;SDS011;2277;51.626;7.516;2022-12-11T06:22:58;21.10;;;15.00;;
4529;SDS011;2277;51.626;7.516;2022-12-11T06:25:24;30.93;;;16.37;;
4529;SDS011;2277;51.626;7.516;2022-12-11T06:27:50;12.37;;;11.10;;
4529;SDS011;2277;51.626;7.516;2022-12-11T06:30:15;29.13;;;15.80;;
4529;SDS011;2277;51.626;7.516;2022-12-11T06:32:41;19.37;;;16.33;;
4529;SDS011;2277;51.626;7.516;2022-12-11T06:35:07;31.67;;;15.63;;
4529;SDS011;2277;51.626;7.516;2022-12-11T06:37:34;13.87;;;11.83;;
4529;SDS011;2277;51.626;7.516;2022-12-11T06:40:00;18.97;;;14.10;;
4529;SDS011;2277;51.626;7.516;2022-12-11T06:42:28;21.60;;;13.60;;
4529;SDS011;2277;51.626;7.516;2022-12-11T06:44:54;25.03;;;14.23;;
4529;SDS011;2277;51.626;7.516;2022-12-11T06:47:21;28.73;;;12.27;;
4529;SDS011;2277;51.626;7.516;2022-12-11T06:49:47;26.17;;;15.00;;
4529;SDS011;2277;51.626;7.516;2022-12-11T06:52:12;23.00;;;13.27;;
4529;SDS011;2277;51.626;7.516;2022-12-11T06:54:38;29.93;;;16.60;;
4529;SDS011;2277;51.626;7.516;2022-12-11T06:57:03;28.77;;;14.03;;
4529;SDS011;2277;51.626;7.516;2022-12-11T06:59:29;11.90;;;10.80;;
4529;SDS011;2277;51.626;7.516;2022-12-11T07:01:55;16.60;;;12.90;;
4529;SDS011;2277;51.626;7.516;2022-12-11T07:04:20;26.33;;;15.53;;
4529;SDS011;2277;51.626;7.516;2022-12-11T07:06:48;16.53;;;13.50;;
4529;SDS011;2277;51.626;7.516;2022-12-11T07:09:14;20.40;;;16.53;;
4529;SDS011;2277;51.626;7.516;2022-12-11T07:11:40;39.33;;;15.83;;
4529;SDS011;2277;51.626;7.516;2022-12-11T07:14:05;18.43;;;13.70;;
4529;SDS011;2277;51.626;7.516;2022-12-11T07:16:31;17.90;;;14.73;;
4529;SDS011;2277;51.626;7.516;2022-12-11T07:18:57;26.57;;;14.53;;
4529;SDS011;2277;51.626;7.516;2022-12-11T07:21:22;19.47;;;15.17;;
4529;SDS011;2277;51.626;7.516;2022-12-11T07:23:48;21.80;;;14.10;;
4529;SDS011;2277;51.626;7.516;2022-12-11T07:26:16;19.13;;;13.60;;
4529;SDS011;2277;51.626;7.516;2022-12-11T07:28:43;22.93;;;15.97;;
4529;SDS011;2277;51.626;7.516;2022-12-11T07:31:20;16.40;;;11.87;;
4529;SDS011;2277;51.626;7.516;2022-12-11T07:33:51;21.17;;;19.20;;
4529;SDS011;2277;51.626;7.516;2022-12-11T07:36:21;18.80;;;14.17;;
4529;SDS011;2277;51.626;7.516;2022-12-11T07:38:47;21.50;;;17.53;;
4529;SDS011;2277;51.626;7.516;2022-12-11T07:41:13;24.07;;;18.90;;
4529;SDS011;2277;51.626;7.516;2022-12-11T07:43:40;23.37;;;14.73;;
4529;SDS011;2277;51.626;7.516;2022-12-11T07:46:09;19.00;;;14.23;;
4529;SDS011;2277;51.626;7.516;2022-12-11T07:48:36;24.57;;;13.47;;
4529;SDS011;2277;51.626;7.516;2022-12-11T07:51:16;14.13;;;10.80;;
4529;SDS011;2277;51.626;7.516;2022-12-11T07:53:44;21.80;;;15.40;;
4529;SDS011;2277;51.626;7.516;2022-12-11T07:56:12;23.40;;;13.47;;
4529;SDS011;2277;51.626;7.516;2022-12-11T07:58:38;38.90;;;14.83;;
4529;SDS011;2277;51.626;7.516;2022-12-11T08:01:24;19.30;;;13.40;;
4529;SDS011;2277;51.626;7.516;2022-12-11T08:03:51;19.50;;;14.77;;
4529;SDS011;2277;51.626;7.516;2022-12-11T08:06:17;17.43;;;13.10;;
4529;SDS011;2277;51.626;7.516;2022-12-11T08:08:45;22.60;;;14.07;;
4529;SDS011;2277;51.626;7.516;2022-12-11T08:11:12;16.33;;;11.10;;
4529;SDS011;2277;51.626;7.516;2022-12-11T08:13:39;20.87;;;12.90;;
4529;SDS011;2277;51.626;7.516;2022-12-11T08:16:05;15.83;;;14.23;;
4529;SDS011;2277;51.626;7.516;2022-12-11T08:18:33;16.60;;;10.90;;
4529;SDS011;2277;51.626;7.516;2022-12-11T08:21:04;15.87;;;12.90;;
4529;SDS011;2277;51.626;7.516;2022-12-11T08:23:37;18.40;;;15.10;;
4529;SDS011;2277;51.626;7.516;2022-12-11T08:26:03;22.27;;;15.50;;
4529;SDS011;2277;51.626;7.516;2022-12-11T08:28:30;19.80;;;10.97;;
4529;SDS011;2277;51.626;7.516;2022-12-11T08:30:56;23.20;;;13.50;;
4529;SDS011;2277;51.626;7.516;2022-12-11T08:33:22;12.03;;;9.67;;
4529;SDS011;2277;51.626;7.516;2022-12-11T08:35:48;19.20;;;15.30;;
4529;SDS011;2277;51.626;7.516;2022-12-11T08:38:14;20.77;;;12.13;;
4529;SDS011;2277;51.626;7.516;2022-12-11T08:40:40;17.90;;;13.73;;
4529;SDS011;2277;51.626;7.516;2022-12-11T08:43:05;38.90;;;15.47;;
4529;SDS011;2277;51.626;7.516;2022-12-11T08:45:31;16.90;;;11.27;;
4529;SDS011;2277;51.626;7.516;2022-12-11T08:47:57;17.80;;;13.37;;
4529;SDS011;2277;51.626;7.516;2022-12-11T08:50:23;14.33;;;12.80;;
4529;SDS011;2277;51.626;7.516;2022-12-11T08:52:49;14.53;;;13.03;;
4529;SDS011;2277;51.626;7.516;2022-12-11T08:55:15;13.10;;;10.80;;
4529;SDS011;2277;51.626;7.516;2022-12-11T08:57:40;12.20;;;11.03;;
4529;SDS011;2277;51.626;7.516;2022-12-11T09:00:06;27.67;;;17.80;;
4529;SDS011;2277;51.626;7.516;2022-12-11T09:02:36;11.60;;;10.40;;
4529;SDS011;2277;51.626;7.516;2022-12-11T09:05:02;17.67;;;12.03;;
4529;SDS011;2277;51.626;7.516;2022-12-11T09:07:31;15.90;;;14.33;;
4529;SDS011;2277;51.626;7.516;2022-12-11T09:10:00;13.07;;;11.87;;
4529;SDS011;2277;51.626;7.516;2022-12-11T09:12:27;14.43;;;12.60;;
4529;SDS011;2277;51.626;7.516;2022-12-11T09:14:53;10.63;;;9.83;;
4529;SDS011;2277;51.626;7.516;2022-12-11T09:17:19;13.30;;;10.10;;
4529;SDS011;2277;51.626;7.516;2022-12-11T09:19:44;18.63;;;13.10;;
4529;SDS011;2277;51.626;7.516;2022-12-11T09:22:10;28.30;;;14.80;;
4529;SDS011;2277;51.626;7.516;2022-12-11T09:24:36;25.57;;;14.47;;
4529;SDS011;2277;51.626;7.516;2022-12-11T09:27:03;20.50;;;14.67;;
4529;SDS011;2277;51.626;7.516;2022-12-11T09:29:29;22.33;;;14.50;;
4529;SDS011;2277;51.626;7.516;2022-12-11T09:31:55;24.73;;;11.93;;
4529;SDS011;2277;51.626;7.516;2022-12-11T09:34:20;17.30;;;11.20;;
4529;SDS011;2277;51.626;7.516;2022-12-11T09:36:46;19.17;;;10.20;;
4529;SDS011;2277;51.626;7.516;2022-12-11T09:39:12;23.37;;;14.37;;
4529;SDS011;2277;51.626;7.516;2022-12-11T09:46:42;15.20;;;12.87;;
4529;SDS011;2277;51.626;7.516;2022-12-11T09:49:27;16.50;;;13.73;;
4529;SDS011;2277;51.626;7.516;2022-12-11T09:52:05;19.77;;;11.40;;
4529;SDS011;2277;51.626;7.516;2022-12-11T09:54:57;14.50;;;11.70;;
4529;SDS011;2277;51.626;7.516;2022-12-11T10:02:56;18.20;;;15.23;;
4529;SDS011;2277;51.626;7.516;2022-12-11T10:05:49;19.77;;;12.40;;
4529;SDS011;2277;51.626;7.516;2022-12-11T10:11:20;13.30;;;10.43;;
4529;SDS011;2277;51.626;7.516;2022-12-11T10:16:37;12.30;;;10.93;;
4529;SDS011;2277;51.626;7.516;2022-12-11T10:19:06;25.10;;;13.40;;
4529;SDS011;2277;51.626;7.516;2022-12-11T10:21:40;20.50;;;14.30;;
4529;SDS011;2277;51.626;7.516;2022-12-11T10:24:13;24.13;;;15.50;;
4529;SDS011;2277;51.626;7.516;2022-12-11T10:26:54;16.17;;;10.23;;
4529;SDS011;2277;51.626;7.516;2022-12-11T10:29:22;16.50;;;10.47;;
4529;SDS011;2277;51.626;7.516;2022-12-11T10:31:49;13.53;;;11.67;;
4529;SDS011;2277;51.626;7.516;2022-12-11T10:36:45;15.40;;;8.37;;
4529;SDS011;2277;51.626;7.516;2022-12-11T10:39:11;11.40;;;8.33;;
4529;SDS011;2277;51.626;7.516;2022-12-11T10:41:43;13.00;;;9.30;;
4529;SDS011;2277;51.626;7.516;2022-12-11T10:44:13;11.93;;;8.47;;
4529;SDS011;2277;51.626;7.516;2022-12-11T10:46:43;13.17;;;11.83;;
4529;SDS011;2277;51.626;7.516;2022-12-11T10:49:20;9.30;;;8.17;;
4529;SDS011;2277;51.626;7.516;2022-12-11T10:51:51;15.53;;;9.90;;
4529;SDS011;2277;51.626;7.516;2022-12-11T10:56:55;11.50;;;8.77;;
4529;SDS011;2277;51.626;7.516;2022-12-11T10:59:43;9.77;;;8.60;;
4529;SDS011;2277;51.626;7.516;2022-12-11T11:02:24;11.23;;;8.30;;
4529;SDS011;2277;51.626;7.516;2022-12-11T11:04:58;13.90;;;9.50;;
4529;SDS011;2277;51.626;7.516;2022-12-11T11:07:26;13.30;;;9.80;;
4529;SDS011;2277;51.626;7.516;2022-12-11T11:12:48;11.10;;;10.13;;
4529;SDS011;2277;51.626;7.516;2022-12-11T11:15:16;9.30;;;6.53;;
4529;SDS011;2277;51.626;7.516;2022-12-11T11:17:45;11.67;;;9.00;;
4529;SDS011;2277;51.626;7.516;2022-12-11T11:20:14;26.80;;;10.73;;
4529;SDS011;2277;51.626;7.516;2022-12-11T11:22:46;8.80;;;8.00;;
4529;SDS011;2277;51.626;7.516;2022-12-11T11:25:16;11.63;;;8.80;;
4529;SDS011;2277;51.626;7.516;2022-12-11T11:27:50;11.07;;;9.67;;
4529;SDS011;2277;51.626;7.516;2022-12-11T11:30:27;11.10;;;7.93;;
4529;SDS011;2277;51.626;7.516;2022-12-11T11:32:56;10.30;;;6.83;;
4529;SDS011;2277;51.626;7.516;2022-12-11T11:35:27;13.07;;;7.37;;
4529;SDS011;2277;51.626;7.516;2022-12-11T11:37:58;11.77;;;10.40;;
4529;SDS011;2277;51.626;7.516;2022-12-11T11:40:51;8.07;;;7.27;;
4529;SDS011;2277;51.626;7.516;2022-12-11T11:43:27;8.90;;;8.03;;
4529;SDS011;2277;51.626;7.516;2022-12-11T11:46:19;10.53;;;9.53;;
4529;SDS011;2277;51.626;7.516;2022-12-11T11:51:54;12.27;;;8.33;;
4529;SDS011;2277;51.626;7.516;2022-12-11T11:54:35;7.97;;;7.17;;
4529;SDS011;2277;51.626;7.516;2022-12-11T11:59:57;9.77;;;8.73;;
4529;SDS011;2277;51.626;7.516;2022-12-11T12:02:34;19.33;;;11.60;;
4529;SDS011;2277;51.626;7.516;2022-12-11T12:05:01;8.63;;;7.83;;
4529;SDS011;2277;51.626;7.516;2022-12-11T12:07:43;12.07;;;10.70;;
4529;SDS011;2277;51.626;7.516;2022-12-11T12:10:40;14.67;;;9.37;;
4529;SDS011;2277;51.626;7.516;2022-12-11T12:13:21;13.30;;;7.13;;
4529;SDS011;2277;51.626;7.516;2022-12-11T12:15:55;9.00;;;8.03;;
4529;SDS011;2277;51.626;7.516;2022-12-11T12:27:00;10.00;;;7.50;;
4529;SDS011;2277;51.626;7.516;2022-12-11T12:37:56;14.70;;;9.67;;
4529;SDS011;2277;51.626;7.516;2022-12-11T12:40:39;8.93;;;7.93;;
4529;SDS011;2277;51.626;7.516;2022-12-11T12:46:04;18.33;;;7.77;;
4529;SDS011;2277;51.626;7.516;2022-12-11T12:48:50;7.40;;;6.60;;
4529;SDS011;2277;51.626;7.516;2022-12-11T12:51:18;8.83;;;7.93;;
4529;SDS011;2277;51.626;7.516;2022-12-11T12:54:03;10.63;;;8.07;;
4529;SDS011;2277;51.626;7.516;2022-12-11T12:56:31;13.73;;;9.77;;
4529;SDS011;2277;51.626;7.516;2022-12-11T12:58:57;10.50;;;7.40;;
4529;SDS011;2277;51.626;7.516;2022-12-11T13:01:24;19.97;;;10.60;;
4529;SDS011;2277;51.626;7.516;2022-12-11T13:03:55;6.53;;;6.03;;
4529;SDS011;2277;51.626;7.516;2022-12-11T13:09:16;12.30;;;6.90;;
4529;SDS011;2277;51.626;7.516;2022-12-11T13:11:42;12.87;;;8.67;;
4529;SDS011;2277;51.626;7.516;2022-12-11T13:16:41;13.30;;;12.00;;
4529;SDS011;2277;51.626;7.516;2022-12-11T13:21:55;12.37;;;9.13;;
4529;SDS011;2277;51.626;7.516;2022-12-11T13:24:24;14.77;;;8.83;;
4529;SDS011;2277;51.626;7.516;2022-12-11T13:26:52;13.33;;;9.33;;
4529;SDS011;2277;51.626;7.516;2022-12-11T13:29:37;15.50;;;10.67;;
4529;SDS011;2277;51.626;7.516;2022-12-11T13:34:34;11.60;;;8.70;;
4529;SDS011;2277;51.626;7.516;2022-12-11T13:37:06;12.63;;;9.10;;
4529;SDS011;2277;51.626;7.516;2022-12-11T13:39:45;17.30;;;9.40;;
4529;SDS011;2277;51.626;7.516;2022-12-11T13:42:46;17.07;;;12.07;;
4529;SDS011;2277;51.626;7.516;2022-12-11T13:45:15;20.87;;;13.80;;
4529;SDS011;2277;51.626;7.516;2022-12-11T13:48:10;13.87;;;9.93;;
4529;SDS011;2277;51.626;7.516;2022-12-11T13:50:58;27.27;;;11.77;;
4529;SDS011;2277;51.626;7.516;2022-12-11T13:53:25;16.17;;;14.73;;
4529;SDS011;2277;51.626;7.516;2022-12-11T13:55:58;12.90;;;10.43;;
4529;SDS011;2277;51.626;7.516;2022-12-11T13:58:36;9.10;;;8.07;;
4529;SDS011;2277;51.626;7.516;2022-12-11T14:01:05;16.93;;;12.00;;
4529;SDS011;2277;51.626;7.516;2022-12-11T14:03:35;19.47;;;9.37;;
4529;SDS011;2277;51.626;7.516;2022-12-11T14:06:03;11.93;;;8.33;;
4529;SDS011;2277;51.626;7.516;2022-12-11T14:08:35;18.87;;;13.83;;
4529;SDS011;2277;51.626;7.516;2022-12-11T14:11:02;17.87;;;10.87;;
4529;SDS011;2277;51.626;7.516;2022-12-11T14:13:35;16.50;;;11.70;;
4529;SDS011;2277;51.626;7.516;2022-12-11T14:16:04;20.30;;;9.73;;
4529;SDS011;2277;51.626;7.516;2022-12-11T14:18:32;13.57;;;11.80;;
4529;SDS011;2277;51.626;7.516;2022-12-11T14:21:00;18.07;;;11.23;;
4529;SDS011;2277;51.626;7.516;2022-12-11T14:23:34;15.47;;;11.80;;
4529;SDS011;2277;51.626;7.516;2022-12-11T14:28:41;25.97;;;14.60;;
4529;SDS011;2277;51.626;7.516;2022-12-11T14:31:07;14.40;;;10.40;;
4529;SDS011;2277;51.626;7.516;2022-12-11T14:33:39;17.53;;;12.17;;
4529;SDS011;2277;51.626;7.516;2022-12-11T14:36:07;15.60;;;13.00;;
4529;SDS011;2277;51.626;7.516;2022-12-11T14:38:36;12.63;;;9.97;;
4529;SDS011;2277;51.626;7.516;2022-12-11T14:41:11;13.57;;;11.37;;
4529;SDS011;2277;51.626;7.516;2022-12-11T14:43:47;16.13;;;9.10;;
4529;SDS011;2277;51.626;7.516;2022-12-11T14:46:17;12.60;;;10.03;;
4529;SDS011;2277;51.626;7.516;2022-12-11T14:49:00;15.93;;;12.53;;
4529;SDS011;2277;51.626;7.516;2022-12-11T14:51:30;12.13;;;10.97;;
4529;SDS011;2277;51.626;7.516;2022-12-11T14:54:03;23.20;;;12.90;;
4529;SDS011;2277;51.626;7.516;2022-12-11T14:56:30;16.63;;;14.33;;
4529;SDS011;2277;51.626;7.516;2022-12-11T14:59:03;14.03;;;12.60;;
4529;SDS011;2277;51.626;7.516;2022-12-11T15:01:34;17.93;;;13.37;;
4529;SDS011;2277;51.626;7.516;2022-12-11T15:04:05;27.33;;;14.60;;
4529;SDS011;2277;51.626;7.516;2022-12-11T15:06:48;17.83;;;12.13;;
4529;SDS011;2277;51.626;7.516;2022-12-11T15:12:14;17.33;;;13.03;;
4529;SDS011;2277;51.626;7.516;2022-12-11T15:14:46;16.37;;;13.90;;
4529;SDS011;2277;51.626;7.516;2022-12-11T15:17:22;15.00;;;13.73;;
4529;SDS011;2277;51.626;7.516;2022-12-11T15:19:50;21.60;;;13.97;;
4529;SDS011;2277;51.626;7.516;2022-12-11T15:22:19;13.37;;;12.13;;
4529;SDS011;2277;51.626;7.516;2022-12-11T15:24:50;17.90;;;9.37;;
4529;SDS011;2277;51.626;7.516;2022-12-11T15:29:54;12.80;;;11.07;;
4529;SDS011;2277;51.626;7.516;2022-12-11T15:32:20;20.57;;;14.97;;
4529;SDS011;2277;51.626;7.516;2022-12-11T15:34:48;17.37;;;12.53;;
4529;SDS011;2277;51.626;7.516;2022-12-11T15:39:49;18.30;;;14.17;;
4529;SDS011;2277;51.626;7.516;2022-12-11T15:42:21;23.73;;;15.97;;
4529;SDS011;2277;51.626;7.516;2022-12-11T15:44:48;16.10;;;12.57;;
4529;SDS011;2277;51.626;7.516;2022-12-11T15:47:14;16.57;;;13.57;;
4529;SDS011;2277;51.626;7.516;2022-12-11T15:49:52;18.83;;;11.33;;
4529;SDS011;2277;51.626;7.516;2022-12-11T15:52:40;17.47;;;12.60;;
4529;SDS011;2277;51.626;7.516;2022-12-11T15:55:06;10.73;;;9.63;;
4529;SDS011;2277;51.626;7.516;2022-12-11T15:57:32;12.00;;;9.60;;
4529;SDS011;2277;51.626;7.516;2022-12-11T15:59:58;28.27;;;12.50;;
4529;SDS011;2277;51.626;7.516;2022-12-11T16:02:24;12.63;;;10.77;;
4529;SDS011;2277;51.626;7.516;2022-12-11T16:04:51;18.70;;;17.00;;
4529;SDS011;2277;51.626;7.516;2022-12-11T16:07:20;26.70;;;11.63;;
4529;SDS011;2277;51.626;7.516;2022-12-11T16:09:47;16.87;;;12.07;;
4529;SDS011;2277;51.626;7.516;2022-12-11T16:12:13;14.63;;;11.47;;
4529;SDS011;2277;51.626;7.516;2022-12-11T16:14:43;14.47;;;10.30;;
4529;SDS011;2277;51.626;7.516;2022-12-11T16:17:09;18.73;;;13.73;;
4529;SDS011;2277;51.626;7.516;2022-12-11T16:19:37;25.63;;;12.03;;
4529;SDS011;2277;51.626;7.516;2022-12-11T16:22:02;11.37;;;9.13;;
4529;SDS011;2277;51.626;7.516;2022-12-11T16:24:28;14.73;;;13.60;;
4529;SDS011;2277;51.626;7.516;2022-12-11T16:26:54;16.80;;;14.10;;
4529;SDS011;2277;51.626;7.516;2022-12-11T16:29:20;20.00;;;11.97;;
4529;SDS011;2277;51.626;7.516;2022-12-11T16:31:46;18.70;;;14.10;;
4529;SDS011;2277;51.626;7.516;2022-12-11T16:34:12;12.83;;;10.67;;
4529;SDS011;2277;51.626;7.516;2022-12-11T16:36:37;19.37;;;13.93;;
4529;SDS011;2277;51.626;7.516;2022-12-11T16:39:03;16.70;;;11.63;;
4529;SDS011;2277;51.626;7.516;2022-12-11T16:41:29;12.50;;;11.13;;
4529;SDS011;2277;51.626;7.516;2022-12-11T16:43:54;11.50;;;9.77;;
4529;SDS011;2277;51.626;7.516;2022-12-11T16:46:20;26.10;;;13.60;;